Time;durP1;ratioP1;P1;durP2;ratioP2;P2;SDS_P1;SDS_P2;PMS_P1;PMS_P2;Temp;Humidity;BMP_temperature;BMP_pressure;BME280_temperature;BME280_humidity;BME280_pressure;Samples;Min_cycle;Max_cycle;Signal;HPM_P1;HPM_P2
2022/08/08 00:00:17;;;;;;;0.47;0.20;;;20.30;65.00;;;;;;6187346;23;20616;-82
2022/08/08 00:03:10;;;;;;;0.85;0.20;;;20.20;66.10;;;;;;6160467;23;20036;-82
2022/08/08 00:05:58;;;;;;;0.45;0.20;;;20.20;67.00;;;;;;6159861;23;20343;-81
2022/08/08 00:08:32;;;;;;;0.52;0.30;;;20.20;67.20;;;;;;6186297;23;20084;-82
2022/08/08 00:11:24;;;;;;;0.35;0.20;;;20.10;67.30;;;;;;6187025;23;20013;-81
2022/08/08 00:14:15;;;;;;;0.55;0.20;;;20.10;67.10;;;;;;6161462;23;20064;-82
2022/08/08 00:16:54;;;;;;;0.43;0.17;;;20.00;67.30;;;;;;6188705;23;20001;-82
2022/08/08 00:19:33;;;;;;;0.50;0.20;;;19.90;66.50;;;;;;6161134;23;20001;-82
2022/08/08 00:22:06;;;;;;;0.55;0.35;;;19.90;67.70;;;;;;6188309;23;20001;-82
2022/08/08 00:24:37;;;;;;;0.60;0.10;;;19.90;67.90;;;;;;6160921;23;20080;-82
2022/08/08 00:27:06;;;;;;;1.52;0.20;;;19.80;68.70;;;;;;6186503;23;20021;-82
2022/08/08 00:29:55;;;;;;;0.15;0.10;;;19.80;69.00;;;;;;6160804;23;20211;-82
2022/08/08 00:32:32;;;;;;;1.85;0.30;;;19.70;69.20;;;;;;6161157;23;20012;-82
2022/08/08 00:35:11;;;;;;;0.63;0.20;;;19.60;69.80;;;;;;6160638;23;20004;-82
2022/08/08 00:37:45;;;;;;;1.02;0.22;;;19.50;69.50;;;;;;6187344;23;20001;-82
2022/08/08 00:40:29;;;;;;;0.68;0.28;;;19.40;70.40;;;;;;6187055;23;20008;-81
2022/08/08 00:43:32;;;;;;;0.98;0.40;;;19.30;70.50;;;;;;6187053;23;20088;-82
2022/08/08 00:46:29;;;;;;;0.95;0.30;;;19.30;70.60;;;;;;6184979;23;20481;-82
2022/08/08 00:49:14;;;;;;;0.47;0.20;;;19.20;70.00;;;;;;6160549;23;20127;-82
2022/08/08 00:51:48;;;;;;;0.63;0.25;;;19.10;70.50;;;;;;6186718;23;20379;-79
2022/08/08 00:54:23;;;;;;;0.80;0.30;;;19.10;70.80;;;;;;6160443;23;20451;-80
2022/08/08 00:57:26;;;;;;;1.10;0.30;;;19.00;71.30;;;;;;6159828;23;20087;-80
2022/08/08 01:00:06;;;;;;;0.85;0.30;;;19.00;70.60;;;;;;6159662;23;20036;-79
2022/08/08 01:03:07;;;;;;;1.15;0.20;;;19.00;70.80;;;;;;6158532;23;20298;-79
2022/08/08 01:06:02;;;;;;;0.43;0.15;;;19.00;71.80;;;;;;6159791;23;20063;-79
2022/08/08 01:08:54;;;;;;;0.38;0.20;;;18.90;71.10;;;;;;6186772;23;20076;-79
2022/08/08 01:12:04;;;;;;;1.02;0.20;;;18.90;71.30;;;;;;6185721;23;20001;-79
2022/08/08 01:15:08;;;;;;;0.52;0.13;;;18.90;71.50;;;;;;6038224;23;20033;-79
2022/08/08 01:18:08;;;;;;;1.83;0.30;;;18.80;71.80;;;;;;6028376;23;20390;-79
2022/08/08 01:20:56;;;;;;;0.70;0.30;;;18.80;71.90;;;;;;6186196;23;20079;-79
2022/08/08 01:23:51;;;;;;;0.80;0.10;;;18.80;72.30;;;;;;6160085;23;20009;-79
2022/08/08 01:26:41;;;;;;;1.55;0.30;;;18.80;72.20;;;;;;6153940;23;20005;-79
2022/08/08 01:29:36;;;;;;;0.75;0.22;;;18.80;72.30;;;;;;6159511;23;20338;-80
2022/08/08 01:32:32;;;;;;;0.77;0.20;;;18.70;72.60;;;;;;6185963;23;20013;-79
2022/08/08 01:35:24;;;;;;;0.47;0.17;;;18.70;72.90;;;;;;6158768;23;20004;-80
2022/08/08 01:38:12;;;;;;;0.43;0.20;;;18.70;72.90;;;;;;6159972;23;20035;-79
2022/08/08 01:41:12;;;;;;;1.50;0.35;;;18.60;73.40;;;;;;6159373;23;20269;-79
2022/08/08 01:44:12;;;;;;;0.60;0.20;;;18.60;73.30;;;;;;6186619;23;20076;-80
2022/08/08 01:46:51;;;;;;;0.80;0.30;;;18.50;73.70;;;;;;6178684;23;20005;-79
2022/08/08 01:49:33;;;;;;;3.10;0.20;;;18.50;73.50;;;;;;6159964;23;20452;-77
2022/08/08 01:52:15;;;;;;;1.35;0.25;;;18.40;73.40;;;;;;6184802;23;20001;-79
2022/08/08 01:55:06;;;;;;;0.70;0.30;;;18.40;73.40;;;;;;6159967;23;20007;-79
2022/08/08 01:57:47;;;;;;;0.40;0.20;;;18.40;74.30;;;;;;6159398;23;20083;-80
2022/08/08 02:00:23;;;;;;;0.85;0.20;;;18.30;74.70;;;;;;6159197;23;20469;-79
2022/08/08 02:03:16;;;;;;;0.35;0.20;;;18.30;75.10;;;;;;6186747;23;20012;-79
2022/08/08 02:06:11;;;;;;;0.75;0.10;;;18.20;75.10;;;;;;6158828;23;20009;-78
2022/08/08 02:08:44;;;;;;;0.90;0.30;;;18.10;75.10;;;;;;6138203;23;20011;-79
2022/08/08 02:11:38;;;;;;;0.93;0.20;;;18.10;75.40;;;;;;6158386;23;20009;-79
2022/08/08 02:14:34;;;;;;;0.60;0.22;;;18.10;74.90;;;;;;6158616;23;20028;-79
2022/08/08 02:17:28;;;;;;;0.28;0.20;;;18.10;75.20;;;;;;6167563;23;20048;-79
2022/08/08 02:20:00;;;;;;;1.23;0.25;;;18.00;74.80;;;;;;6164432;23;20012;-79
2022/08/08 02:22:31;;;;;;;0.85;0.40;;;18.00;75.20;;;;;;6168360;23;20057;-79
2022/08/08 02:25:26;;;;;;;1.52;0.20;;;18.00;75.50;;;;;;6195168;23;20001;-78
2022/08/08 02:28:07;;;;;;;0.50;0.20;;;18.00;76.00;;;;;;6200159;23;20005;-77
2022/08/08 02:30:59;;;;;;;0.77;0.20;;;18.00;76.10;;;;;;6182612;23;19993;-79
2022/08/08 02:33:40;;;;;;;1.02;0.38;;;17.90;76.20;;;;;;6209521;23;20013;-79
2022/08/08 02:36:21;;;;;;;1.05;0.40;;;17.90;76.60;;;;;;6168997;23;20005;-79
2022/08/08 02:38:57;;;;;;;0.87;0.30;;;17.80;77.20;;;;;;6189572;23;20025;-79
2022/08/08 02:41:41;;;;;;;1.70;0.40;;;17.80;77.40;;;;;;6192702;23;20244;-79
2022/08/08 02:44:34;;;;;;;0.73;0.10;;;17.80;77.50;;;;;;6191376;23;20068;-78
2022/08/08 02:47:17;;;;;;;0.63;0.30;;;17.70;77.10;;;;;;6162682;23;20005;-79
2022/08/08 02:50:04;;;;;;;0.50;0.22;;;17.70;77.10;;;;;;6190282;23;20032;-79
2022/08/08 02:52:41;;;;;;;1.30;0.38;;;17.70;76.90;;;;;;6184662;23;20005;-77
2022/08/08 02:55:34;;;;;;;0.70;0.25;;;17.60;76.50;;;;;;6161929;23;20005;-79
2022/08/08 02:58:21;;;;;;;0.90;0.20;;;17.60;76.80;;;;;;6189866;23;20075;-79
2022/08/08 03:01:07;;;;;;;0.30;0.30;;;17.60;77.60;;;;;;6189646;23;20001;-79
2022/08/08 03:04:10;;;;;;;0.63;0.30;;;17.60;78.20;;;;;;6188765;23;20005;-80
2022/08/08 03:06:57;;;;;;;1.45;0.65;;;17.60;78.30;;;;;;6187409;23;20066;-78
2022/08/08 03:09:44;;;;;;;0.60;0.30;;;17.60;78.30;;;;;;6187853;23;20025;-79
2022/08/08 03:12:12;;;;;;;0.93;0.17;;;17.60;78.60;;;;;;6187964;23;20005;-80
2022/08/08 03:14:59;;;;;;;0.45;0.20;;;17.60;79.80;;;;;;6160688;23;20000;-79
2022/08/08 03:17:46;;;;;;;0.68;0.20;;;17.50;79.60;;;;;;6188449;23;20079;-79
2022/08/08 03:20:14;;;;;;;1.25;0.30;;;17.40;80.00;;;;;;6161138;23;20001;-80
2022/08/08 03:22:51;;;;;;;0.43;0.20;;;17.30;79.90;;;;;;6186825;23;20012;-79
2022/08/08 03:25:19;;;;;;;1.98;0.30;;;17.20;80.20;;;;;;6160638;23;20012;-79
2022/08/08 03:27:50;;;;;;;1.70;0.40;;;17.20;80.70;;;;;;6186980;23;20378;-79
2022/08/08 03:30:16;;;;;;;3.25;0.30;;;17.20;81.10;;;;;;6187664;23;20484;-79
2022/08/08 03:35:27;;;;;;;0.60;0.30;;;17.20;81.70;;;;;;6187168;23;20444;-79
2022/08/08 03:37:53;;;;;;;0.70;0.40;;;17.20;81.80;;;;;;6161430;23;20005;-79
2022/08/08 03:40:20;;;;;;;0.63;0.20;;;17.20;82.00;;;;;;6187147;23;20016;-79
2022/08/08 03:42:47;;;;;;;1.00;0.30;;;17.20;82.30;;;;;;6186924;23;20001;-79
2022/08/08 03:45:19;;;;;;;1.20;0.40;;;17.20;82.50;;;;;;6186466;23;20069;-79
2022/08/08 03:48:04;;;;;;;1.75;0.40;;;17.20;82.50;;;;;;6186914;23;20383;-79
2022/08/08 03:50:34;;;;;;;1.30;0.43;;;17.20;82.90;;;;;;6187764;23;20030;-79
2022/08/08 03:53:12;;;;;;;0.95;0.35;;;17.20;83.40;;;;;;6156202;23;20147;-79
2022/08/08 03:55:44;;;;;;;3.50;0.45;;;17.20;84.10;;;;;;6187206;23;20016;-80
2022/08/08 03:58:15;;;;;;;;;;;17.10;84.20;;;;;;6160611;23;20005;-78
2022/08/08 04:00:41;;;;;;;0.80;0.40;;;17.10;84.50;;;;;;6187361;23;19916;-79
2022/08/08 04:03:07;;;;;;;1.00;0.40;;;17.10;85.00;;;;;;6186439;23;20012;-79
2022/08/08 04:05:35;;;;;;;2.58;0.60;;;17.00;85.30;;;;;;6159748;23;20012;-79
2022/08/08 04:08:06;;;;;;;1.08;0.43;;;16.90;85.40;;;;;;6187015;23;20072;-79
2022/08/08 04:10:33;;;;;;;2.33;0.70;;;16.90;85.90;;;;;;6186805;23;20079;-79
2022/08/08 04:13:00;;;;;;;0.82;0.40;;;16.80;86.30;;;;;;6187238;23;20056;-79
2022/08/08 04:15:26;;;;;;;1.10;0.43;;;16.80;86.70;;;;;;6160159;23;20019;-78
2022/08/08 04:17:52;;;;;;;1.15;0.50;;;16.80;87.40;;;;;;6186942;23;20028;-79
2022/08/08 04:20:17;;;;;;;1.20;0.50;;;16.80;87.60;;;;;;6188039;23;20005;-79
2022/08/08 04:22:43;;;;;;;1.17;0.50;;;16.80;87.90;;;;;;6160859;23;20020;-79
2022/08/08 04:25:09;;;;;;;1.23;0.50;;;16.70;88.40;;;;;;6187217;23;20012;-79
2022/08/08 04:27:36;;;;;;;0.60;0.38;;;16.70;88.70;;;;;;6186940;23;20008;-79
2022/08/08 04:30:04;;;;;;;1.25;0.52;;;16.70;89.10;;;;;;6187256;23;20078;-79
2022/08/08 04:32:30;;;;;;;2.45;0.80;;;16.60;89.50;;;;;;6160341;23;20059;-79
2022/08/08 04:34:55;;;;;;;1.55;0.60;;;16.60;89.90;;;;;;6185992;23;20004;-79
2022/08/08 04:37:21;;;;;;;2.33;0.63;;;16.60;90.00;;;;;;6187339;23;20108;-79
2022/08/08 04:39:47;;;;;;;0.90;0.50;;;16.70;90.10;;;;;;6186188;23;20004;-79
2022/08/08 04:42:12;;;;;;;1.75;0.50;;;16.70;90.30;;;;;;6186664;23;20424;-79
2022/08/08 04:44:38;;;;;;;1.13;0.50;;;16.70;90.40;;;;;;6160866;23;20013;-80
2022/08/08 04:47:04;;;;;;;2.08;0.80;;;16.70;90.60;;;;;;6186334;23;20395;-79
2022/08/08 04:49:30;;;;;;;1.75;0.80;;;16.80;90.70;;;;;;6186863;23;20056;-79
2022/08/08 04:51:56;;;;;;;0.75;0.47;;;16.70;90.70;;;;;;6157514;23;20749;-78
2022/08/08 04:54:21;;;;;;;1.05;0.57;;;16.80;90.80;;;;;;6185005;23;20344;-79
2022/08/08 04:56:47;;;;;;;1.80;0.60;;;16.90;91.10;;;;;;6185857;23;20028;-80
2022/08/08 04:59:12;;;;;;;0.80;0.55;;;16.90;90.90;;;;;;6158915;23;20437;-80
2022/08/08 05:01:38;;;;;;;3.03;0.63;;;16.90;90.90;;;;;;6158928;23;20005;-79
2022/08/08 05:04:04;;;;;;;2.15;0.60;;;17.00;90.90;;;;;;6159699;23;20009;-79
2022/08/08 05:06:29;;;;;;;1.15;0.50;;;17.10;90.90;;;;;;6185594;23;20546;-78
2022/08/08 05:08:56;;;;;;;1.00;0.50;;;17.20;90.90;;;;;;6185932;23;20081;-78
2022/08/08 05:11:22;;;;;;;1.05;0.40;;;17.30;90.50;;;;;;6184028;23;20005;-79
2022/08/08 05:13:47;;;;;;;1.38;0.55;;;17.40;90.30;;;;;;6185833;23;20048;-79
2022/08/08 05:16:13;;;;;;;1.05;0.32;;;17.50;90.40;;;;;;6184797;23;20013;-79
2022/08/08 05:18:38;;;;;;;1.98;0.50;;;17.60;90.40;;;;;;6186048;23;19997;-79
2022/08/08 05:21:07;;;;;;;0.93;0.45;;;17.70;90.40;;;;;;6159819;23;20009;-79
2022/08/08 05:23:33;;;;;;;0.73;0.30;;;17.70;90.20;;;;;;6159863;23;19997;-79
2022/08/08 05:26:00;;;;;;;1.40;0.50;;;17.90;90.10;;;;;;6185603;23;19997;-80
2022/08/08 05:28:26;;;;;;;2.53;0.60;;;18.00;90.20;;;;;;6185978;23;20379;-80
2022/08/08 05:30:52;;;;;;;1.42;0.60;;;18.10;90.10;;;;;;6152873;23;20025;-82
2022/08/08 05:33:17;;;;;;;1.48;0.45;;;18.20;90.20;;;;;;6188252;23;20073;-81
2022/08/08 05:35:45;;;;;;;1.60;0.47;;;18.20;90.20;;;;;;6187981;23;19997;-81
2022/08/08 05:38:16;;;;;;;1.13;0.43;;;18.30;90.00;;;;;;6187747;23;20053;-81
2022/08/08 05:40:45;;;;;;;1.60;0.73;;;18.30;90.40;;;;;;6183839;23;20531;-81
2022/08/08 05:43:24;;;;;;;3.67;0.50;;;18.40;90.50;;;;;;6188395;23;20005;-82
2022/08/08 05:45:56;;;;;;;1.63;0.47;;;18.40;90.50;;;;;;6161569;23;20032;-81
2022/08/08 05:48:22;;;;;;;0.35;0.22;;;18.60;90.10;;;;;;6162066;23;20071;-82
2022/08/08 05:50:49;;;;;;;1.67;0.60;;;18.60;90.00;;;;;;6187571;23;20029;-81
2022/08/08 05:53:24;;;;;;;2.42;0.40;;;18.70;89.90;;;;;;6189357;23;20043;-81
2022/08/08 05:55:51;;;;;;;1.48;0.47;;;18.80;89.70;;;;;;6186193;23;20399;-81
2022/08/08 05:58:18;;;;;;;1.10;0.40;;;18.80;89.10;;;;;;6190208;23;20005;-82
2022/08/08 06:00:47;;;;;;;1.20;0.60;;;18.90;88.90;;;;;;6190968;23;20337;-81
2022/08/08 06:03:15;;;;;;;0.93;0.40;;;18.90;88.30;;;;;;6164748;23;20009;-82
2022/08/08 06:05:59;;;;;;;1.27;0.50;;;18.90;89.00;;;;;;6161744;23;20017;-82
2022/08/08 06:08:28;;;;;;;1.25;0.60;;;19.00;89.70;;;;;;6188971;23;20005;-82
2022/08/08 06:10:56;;;;;;;0.90;0.50;;;19.00;89.00;;;;;;6189583;23;20127;-82
2022/08/08 06:13:22;;;;;;;1.02;0.40;;;19.10;88.70;;;;;;6161309;23;20112;-81
2022/08/08 06:15:49;;;;;;;1.58;0.70;;;19.10;88.20;;;;;;6188584;23;20005;-82
2022/08/08 06:18:17;;;;;;;1.48;0.60;;;19.00;88.50;;;;;;6189320;23;20455;-81
2022/08/08 06:20:44;;;;;;;1.33;0.55;;;19.00;88.40;;;;;;6163438;23;20008;-82
2022/08/08 06:23:10;;;;;;;1.60;0.50;;;18.90;88.80;;;;;;6187582;23;20419;-82
2022/08/08 06:25:39;;;;;;;1.30;0.50;;;18.80;89.00;;;;;;6161544;23;20001;-82
2022/08/08 06:28:16;;;;;;;1.27;0.65;;;18.90;89.10;;;;;;6162156;23;20005;-82
2022/08/08 06:30:43;;;;;;;1.00;0.52;;;19.00;88.60;;;;;;6186324;23;20021;-82
2022/08/08 06:33:11;;;;;;;1.02;0.50;;;19.20;89.40;;;;;;6189358;23;20000;-82
2022/08/08 06:35:45;;;;;;;1.70;0.57;;;19.30;88.70;;;;;;6162206;23;20020;-82
2022/08/08 06:38:15;;;;;;;1.65;0.60;;;19.40;88.60;;;;;;6160530;23;20455;-82
2022/08/08 06:40:43;;;;;;;1.48;0.55;;;19.40;88.50;;;;;;6163840;23;19998;-82
2022/08/08 06:43:09;;;;;;;1.15;0.60;;;19.50;88.20;;;;;;6190741;23;20005;-81
2022/08/08 06:45:39;;;;;;;2.20;0.50;;;19.60;87.80;;;;;;6163390;23;20088;-82
2022/08/08 06:48:05;;;;;;;0.95;0.57;;;19.50;87.60;;;;;;6190329;23;20016;-82
2022/08/08 06:50:31;;;;;;;1.80;0.70;;;19.50;87.60;;;;;;6191009;23;20005;-82
2022/08/08 06:53:01;;;;;;;1.50;0.55;;;19.60;88.10;;;;;;6190316;23;20005;-82
2022/08/08 06:55:29;;;;;;;1.15;0.57;;;19.70;88.40;;;;;;6160938;23;20008;-85
2022/08/08 06:57:55;;;;;;;2.55;0.70;;;19.90;88.20;;;;;;6160737;23;20001;-85
2022/08/08 07:00:21;;;;;;;1.13;0.50;;;19.90;87.90;;;;;;6185589;23;20032;-85
2022/08/08 07:02:56;;;;;;;0.85;0.50;;;20.10;87.60;;;;;;6162104;23;20028;-84
2022/08/08 07:05:26;;;;;;;0.82;0.40;;;20.30;88.20;;;;;;6189768;23;20004;-84
2022/08/08 07:07:52;;;;;;;2.30;0.77;;;20.60;87.70;;;;;;6189469;23;20008;-85
2022/08/08 07:10:22;;;;;;;2.08;0.73;;;20.80;87.30;;;;;;6162159;23;20019;-85
2022/08/08 07:13:19;;;;;;;0.63;0.35;;;21.00;87.20;;;;;;6188464;23;20060;-85
2022/08/08 07:16:09;;;;;;;0.95;0.60;;;21.10;87.20;;;;;;6185878;23;20005;-84
2022/08/08 07:18:57;;;;;;;2.65;0.90;;;21.20;87.20;;;;;;6187470;23;20005;-85
2022/08/08 07:21:28;;;;;;;1.98;0.73;;;21.20;86.60;;;;;;6187626;23;20005;-85
2022/08/08 07:24:00;;;;;;;1.63;0.63;;;21.40;86.20;;;;;;6160609;23;20016;-85
2022/08/08 07:26:28;;;;;;;1.27;0.60;;;21.50;86.40;;;;;;6160613;23;20005;-85
2022/08/08 07:28:54;;;;;;;2.85;0.68;;;21.50;86.30;;;;;;6161944;23;20020;-84
2022/08/08 07:31:20;;;;;;;2.13;0.50;;;21.70;86.00;;;;;;6188259;23;20009;-85
2022/08/08 07:33:47;;;;;;;1.75;0.60;;;21.80;86.20;;;;;;6190045;23;20002;-85
2022/08/08 07:36:14;;;;;;;1.67;0.75;;;22.00;85.80;;;;;;6161825;23;20044;-85
2022/08/08 07:38:40;;;;;;;1.67;0.85;;;22.00;85.20;;;;;;6187422;23;20007;-86
2022/08/08 07:41:07;;;;;;;1.92;0.85;;;22.10;85.80;;;;;;6187857;23;20439;-85
2022/08/08 07:43:33;;;;;;;1.38;0.73;;;22.30;84.90;;;;;;6164264;23;20016;-86
2022/08/08 07:45:59;;;;;;;1.00;0.60;;;22.40;85.20;;;;;;6190875;23;20049;-85
2022/08/08 07:48:25;;;;;;;2.22;0.70;;;22.50;85.10;;;;;;6190705;23;20020;-85
2022/08/08 07:50:53;;;;;;;1.20;0.50;;;22.50;84.30;;;;;;6161693;23;20009;-85
2022/08/08 07:53:32;;;;;;;1.60;0.82;;;22.60;84.60;;;;;;6159201;23;20043;-86
2022/08/08 07:56:01;;;;;;;1.58;0.68;;;22.90;85.20;;;;;;6183426;23;20005;-86
2022/08/08 07:58:57;;;;;;;1.35;0.70;;;23.10;83.90;;;;;;6161584;23;20031;-86
2022/08/08 08:01:30;;;;;;;0.68;0.47;;;23.30;83.20;;;;;;6156824;23;20040;-86
2022/08/08 08:04:03;;;;;;;1.42;0.70;;;23.40;82.30;;;;;;6186971;23;20032;-85
2022/08/08 08:06:31;;;;;;;2.38;0.60;;;23.50;82.20;;;;;;6159547;23;20008;-86
2022/08/08 08:09:24;;;;;;;1.20;0.70;;;23.50;82.20;;;;;;6160365;23;20001;-86
2022/08/08 08:11:50;;;;;;;1.77;0.60;;;23.70;81.80;;;;;;6159728;23;20345;-85
2022/08/08 08:14:20;;;;;;;1.35;0.60;;;23.80;81.00;;;;;;6185267;23;20007;-86
2022/08/08 08:16:47;;;;;;;2.30;0.50;;;23.90;80.70;;;;;;6185860;23;20001;-86
2022/08/08 08:19:14;;;;;;;1.83;0.50;;;24.10;80.10;;;;;;6160928;23;20020;-86
2022/08/08 08:21:47;;;;;;;1.55;0.47;;;24.40;79.70;;;;;;6159331;23;20005;-86
2022/08/08 08:24:15;;;;;;;1.38;0.50;;;24.40;78.40;;;;;;6185560;23;20005;-86
2022/08/08 08:26:40;;;;;;;0.98;0.50;;;24.50;78.80;;;;;;6159242;23;20009;-86
2022/08/08 08:29:09;;;;;;;1.52;0.65;;;24.60;78.40;;;;;;6159244;23;20344;-86
2022/08/08 08:31:35;;;;;;;1.15;0.60;;;24.70;78.20;;;;;;6158470;23;20395;-86
2022/08/08 08:34:08;;;;;;;1.33;0.65;;;24.70;77.80;;;;;;6185499;23;20009;-86
2022/08/08 08:36:37;;;;;;;0.98;0.45;;;24.80;76.80;;;;;;6185348;23;19997;-85
2022/08/08 08:39:03;;;;;;;1.42;0.50;;;24.90;77.10;;;;;;6184598;23;20332;-86
2022/08/08 08:41:28;;;;;;;1.27;0.60;;;24.90;76.90;;;;;;6160020;23;20090;-86
2022/08/08 08:43:56;;;;;;;2.20;0.60;;;25.20;76.30;;;;;;6185723;23;20308;-86
2022/08/08 08:46:24;;;;;;;1.75;0.70;;;25.20;75.80;;;;;;6158185;23;20032;-86
2022/08/08 08:48:51;;;;;;;2.05;0.70;;;25.20;75.10;;;;;;6159225;23;20013;-85
2022/08/08 08:51:17;;;;;;;1.73;0.50;;;25.30;75.40;;;;;;6160014;23;20008;-85
2022/08/08 08:53:51;;;;;;;1.25;0.57;;;25.50;74.80;;;;;;6159813;23;20324;-85
2022/08/08 08:56:19;;;;;;;1.00;0.57;;;25.70;75.40;;;;;;6185621;23;20012;-85
2022/08/08 08:58:47;;;;;;;1.23;0.57;;;25.80;75.50;;;;;;6187424;23;19997;-85
2022/08/08 09:01:15;;;;;;;1.35;0.45;;;25.90;73.80;;;;;;6186974;23;19997;-85
2022/08/08 09:03:42;;;;;;;1.25;0.40;;;25.90;73.40;;;;;;6159506;23;20005;-86
2022/08/08 09:06:12;;;;;;;0.82;0.40;;;26.20;74.00;;;;;;6156666;23;20005;-84
2022/08/08 09:08:42;;;;;;;1.00;0.50;;;26.30;73.30;;;;;;6159830;23;20009;-84
2022/08/08 09:11:17;;;;;;;0.82;0.50;;;26.40;72.40;;;;;;6186704;23;19996;-84
2022/08/08 09:13:46;;;;;;;0.90;0.65;;;26.30;72.40;;;;;;6187192;23;20028;-85
2022/08/08 09:16:12;;;;;;;1.58;0.60;;;26.50;71.80;;;;;;6184882;23;20005;-85
2022/08/08 09:18:43;;;;;;;1.48;0.60;;;26.50;72.60;;;;;;6185591;23;20032;-85
2022/08/08 09:21:12;;;;;;;1.40;0.40;;;26.70;71.40;;;;;;6160133;23;20009;-85
2022/08/08 09:23:37;;;;;;;1.58;0.73;;;26.80;71.50;;;;;;6184611;23;20009;-84
2022/08/08 09:26:06;;;;;;;0.75;0.45;;;26.80;71.20;;;;;;6157266;23;20009;-85
2022/08/08 09:28:38;;;;;;;0.68;0.50;;;26.90;70.20;;;;;;6158947;23;20004;-85
2022/08/08 09:31:13;;;;;;;0.73;0.40;;;27.00;69.90;;;;;;6184455;23;20015;-85
2022/08/08 09:33:43;;;;;;;0.90;0.40;;;27.20;70.80;;;;;;6184712;23;20335;-84
2022/08/08 09:36:19;;;;;;;0.52;0.40;;;27.30;70.00;;;;;;6184994;23;20001;-84
2022/08/08 09:38:59;;;;;;;1.17;0.50;;;27.40;68.50;;;;;;6186060;23;20092;-85
2022/08/08 09:41:34;;;;;;;0.85;0.38;;;27.60;69.30;;;;;;6157831;23;20147;-85
2022/08/08 09:44:11;;;;;;;1.13;0.40;;;27.60;68.50;;;;;;6186060;23;20008;-85
2022/08/08 09:46:43;;;;;;;1.33;0.50;;;27.90;68.70;;;;;;6160323;23;20368;-85
2022/08/08 09:49:10;;;;;;;1.48;0.50;;;28.00;69.20;;;;;;6186928;23;20050;-85
2022/08/08 09:51:39;;;;;;;0.95;0.50;;;27.90;67.00;;;;;;6188237;23;20044;-85
2022/08/08 09:54:07;;;;;;;1.83;0.65;;;28.00;67.40;;;;;;6162102;23;20543;-85
2022/08/08 09:56:36;;;;;;;1.08;0.45;;;28.10;68.30;;;;;;6159000;23;20637;-85
2022/08/08 09:59:04;;;;;;;0.45;0.30;;;28.30;67.20;;;;;;6159252;23;20005;-85
2022/08/08 10:01:31;;;;;;;0.82;0.50;;;28.30;66.10;;;;;;6158633;23;20093;-85
2022/08/08 10:03:59;;;;;;;0.70;0.25;;;28.60;64.60;;;;;;6158565;23;20009;-84
2022/08/08 10:06:25;;;;;;;0.52;0.30;;;28.90;62.10;;;;;;6159405;23;20011;-84
2022/08/08 10:08:52;;;;;;;0.63;0.30;;;29.00;62.10;;;;;;6159036;23;20037;-85
2022/08/08 10:11:22;;;;;;;1.05;0.40;;;29.10;62.00;;;;;;6185678;23;20048;-85
2022/08/08 10:13:58;;;;;;;0.93;0.50;;;29.20;61.80;;;;;;6155840;23;20080;-86
2022/08/08 10:16:36;;;;;;;1.52;0.50;;;29.10;63.00;;;;;;6184176;23;20005;-86
2022/08/08 10:19:04;;;;;;;0.93;0.45;;;29.30;63.30;;;;;;6185315;23;20001;-85
2022/08/08 10:21:34;;;;;;;0.57;0.30;;;29.30;62.10;;;;;;6184983;23;20069;-84
2022/08/08 10:24:10;;;;;;;1.08;0.40;;;29.40;64.00;;;;;;6183771;23;20005;-84
2022/08/08 10:26:43;;;;;;;0.73;0.30;;;29.20;63.20;;;;;;6183485;23;20440;-84
2022/08/08 10:29:10;;;;;;;1.35;0.40;;;29.20;62.30;;;;;;6157985;23;20013;-84
2022/08/08 10:34:24;;;;;;;0.73;0.40;;;29.60;61.30;;;;;;6184804;23;20419;-85
2022/08/08 10:36:51;;;;;;;0.57;0.28;;;29.60;60.50;;;;;;6159241;23;20035;-85
2022/08/08 10:39:23;;;;;;;0.93;0.32;;;29.60;60.00;;;;;;6161430;23;20012;-84
2022/08/08 10:42:00;;;;;;;0.60;0.30;;;29.70;59.70;;;;;;6190011;23;20021;-84
2022/08/08 10:44:39;;;;;;;0.93;0.40;;;29.90;60.60;;;;;;6170065;23;20011;-84
2022/08/08 10:47:15;;;;;;;0.32;0.30;;;30.00;60.60;;;;;;6194641;23;20059;-84
2022/08/08 10:49:53;;;;;;;1.20;0.50;;;30.60;59.30;;;;;;6194860;23;20013;-85
2022/08/08 10:52:28;;;;;;;0.47;0.35;;;30.10;58.50;;;;;;6185999;23;20009;-85
2022/08/08 10:55:03;;;;;;;0.70;0.20;;;29.60;59.00;;;;;;6193103;23;20040;-85
2022/08/08 10:57:30;;;;;;;0.30;0.20;;;30.10;58.60;;;;;;6169555;23;20071;-85
2022/08/08 10:59:57;;;;;;;0.40;0.20;;;30.70;58.20;;;;;;6171686;23;20012;-85
2022/08/08 11:02:29;;;;;;;1.05;0.50;;;31.10;56.70;;;;;;6170780;23;20029;-85
2022/08/08 11:05:00;;;;;;;0.60;0.35;;;31.20;56.50;;;;;;6164087;23;20005;-85
2022/08/08 11:07:26;;;;;;;3.72;0.30;;;31.20;56.10;;;;;;6184730;23;20001;-84
2022/08/08 11:09:52;;;;;;;0.52;0.20;;;31.40;57.10;;;;;;6160344;23;20013;-85
2022/08/08 11:12:17;;;;;;;0.77;0.30;;;31.60;56.70;;;;;;6161080;23;20013;-85
2022/08/08 11:14:55;;;;;;;0.60;0.25;;;31.90;55.90;;;;;;6160483;23;20008;-86
2022/08/08 11:17:24;;;;;;;0.88;0.30;;;32.00;54.20;;;;;;6160169;23;20012;-85
2022/08/08 11:19:52;;;;;;;1.00;0.40;;;32.20;55.10;;;;;;6187098;23;20001;-85
2022/08/08 11:22:28;;;;;;;0.40;0.20;;;32.20;53.90;;;;;;6160839;23;20013;-85
2022/08/08 11:25:00;;;;;;;0.50;0.20;;;32.00;54.70;;;;;;6159336;23;20009;-85
2022/08/08 11:27:32;;;;;;;0.73;0.30;;;32.20;54.40;;;;;;6185861;23;20001;-85
2022/08/08 11:30:00;;;;;;;1.15;0.40;;;31.70;54.80;;;;;;6185662;23;20040;-84
2022/08/08 11:34:55;;;;;;;0.45;0.20;;;31.20;55.10;;;;;;6146770;23;20061;-83
2022/08/08 11:37:22;;;;;;;0.60;0.20;;;30.80;54.80;;;;;;6152315;23;20028;-83
2022/08/08 11:39:49;;;;;;;0.98;0.30;;;30.50;55.00;;;;;;6126240;23;20002;-84
2022/08/08 11:42:16;;;;;;;0.65;0.30;;;30.10;55.50;;;;;;6121705;23;20290;-83
2022/08/08 11:44:44;;;;;;;0.98;0.40;;;29.40;55.80;;;;;;6149326;23;20069;-84
2022/08/08 11:47:13;;;;;;;0.32;0.20;;;29.70;55.90;;;;;;6126697;23;20012;-84
2022/08/08 11:49:40;;;;;;;0.40;0.20;;;29.80;55.70;;;;;;6126380;23;20047;-85
2022/08/08 11:52:06;;;;;;;0.63;0.25;;;30.20;55.50;;;;;;6126351;23;20067;-85
2022/08/08 11:54:33;;;;;;;0.50;0.30;;;30.10;55.60;;;;;;6126921;23;20096;-85
2022/08/08 11:57:32;;;;;;;0.57;0.20;;;30.50;56.80;;;;;;6155905;23;20328;-85
2022/08/08 12:00:03;;;;;;;0.60;0.30;;;30.40;56.10;;;;;;6090160;23;20005;-86
2022/08/08 12:02:30;;;;;;;0.75;0.40;;;30.60;56.50;;;;;;6153214;23;20440;-86
2022/08/08 12:05:10;;;;;;;1.33;0.30;;;30.80;56.80;;;;;;6127636;23;20020;-86
2022/08/08 12:07:50;;;;;;;0.50;0.30;;;30.70;55.80;;;;;;6154593;23;20455;-85
2022/08/08 12:10:22;;;;;;;0.82;0.32;;;30.50;55.30;;;;;;6154939;23;20025;-84
2022/08/08 12:12:49;;;;;;;0.43;0.20;;;30.50;54.20;;;;;;6154721;23;20056;-85
2022/08/08 12:15:34;;;;;;;0.80;0.30;;;31.20;54.50;;;;;;6127828;23;20625;-84
2022/08/08 12:18:00;;;;;;;0.85;0.40;;;31.60;53.80;;;;;;6128516;23;20009;-84
2022/08/08 12:20:37;;;;;;;1.13;0.20;;;31.50;52.10;;;;;;6127857;23;20080;-85
2022/08/08 12:23:03;;;;;;;0.70;0.20;;;31.80;53.00;;;;;;6127211;23;20042;-86
2022/08/08 12:25:32;;;;;;;0.43;0.20;;;31.80;52.50;;;;;;6126053;23;20009;-83
2022/08/08 12:28:13;;;;;;;0.65;0.30;;;31.90;52.80;;;;;;6154777;23;20001;-82
2022/08/08 12:30:44;;;;;;;0.50;0.20;;;32.00;52.70;;;;;;6154052;23;20033;-83
2022/08/08 12:33:24;;;;;;;0.40;0.28;;;32.10;52.70;;;;;;6128185;23;20005;-82
2022/08/08 12:35:50;;;;;;;1.65;0.30;;;32.30;52.10;;;;;;6153851;23;20021;-83
2022/08/08 12:38:18;;;;;;;0.63;0.20;;;32.80;51.50;;;;;;6153431;23;19998;-83
2022/08/08 12:40:54;;;;;;;1.05;0.30;;;32.80;52.20;;;;;;6103617;23;20017;-83
2022/08/08 12:43:31;;;;;;;0.93;0.40;;;32.80;51.10;;;;;;6126968;23;20040;-83
2022/08/08 12:45:57;;;;;;;0.55;0.20;;;32.60;51.40;;;;;;6127082;23;20033;-83
2022/08/08 12:48:24;;;;;;;0.60;0.20;;;32.80;52.20;;;;;;6126877;23;20013;-83
2022/08/08 12:50:55;;;;;;;0.55;0.35;;;33.00;52.20;;;;;;6124105;23;20029;-83
2022/08/08 12:53:27;;;;;;;0.57;0.20;;;33.20;52.20;;;;;;6156563;23;20463;-83
2022/08/08 12:56:01;;;;;;;0.52;0.20;;;33.70;51.70;;;;;;6155414;23;20001;-83
2022/08/08 12:58:41;;;;;;;1.27;0.77;;;34.00;51.10;;;;;;6153375;23;20006;-83
2022/08/08 13:01:08;;;;;;;0.22;0.13;;;34.40;50.60;;;;;;6154275;23;20459;-83
2022/08/08 13:03:34;;;;;;;0.63;0.28;;;34.50;49.60;;;;;;6126872;23;20056;-83
2022/08/08 13:06:08;;;;;;;0.38;0.20;;;34.30;49.90;;;;;;6153095;23;19998;-83
2022/08/08 13:08:41;;;;;;;0.60;0.20;;;33.90;49.80;;;;;;6127325;23;20009;-83
2022/08/08 13:11:16;;;;;;;0.88;0.30;;;33.70;49.40;;;;;;6126958;23;20425;-83
2022/08/08 13:13:48;;;;;;;0.73;0.38;;;33.70;49.20;;;;;;6127202;23;20001;-83
2022/08/08 13:16:23;;;;;;;1.05;0.30;;;33.70;50.20;;;;;;6126373;23;20009;-83
2022/08/08 13:18:49;;;;;;;0.70;0.32;;;33.80;50.40;;;;;;6126686;23;20029;-83
2022/08/08 13:21:15;;;;;;;1.45;0.40;;;34.10;50.10;;;;;;6153158;23;20059;-83
2022/08/08 13:23:42;;;;;;;0.20;0.20;;;34.00;50.40;;;;;;6153236;23;20001;-83
2022/08/08 13:26:08;;;;;;;0.30;0.20;;;34.40;50.60;;;;;;6152155;23;20429;-83
2022/08/08 13:28:34;;;;;;;0.22;0.20;;;34.30;49.40;;;;;;6153213;23;20432;-83